sensor_id;sensor_type;location;lat;lon;timestamp;P1;durP1;ratioP1;P2;durP2;ratioP2
74162;SDS011;62515;52.758;5.076;2023-10-09T00:00:55;49.72;;;29.90;;
74162;SDS011;62515;52.758;5.076;2023-10-09T00:03:22;54.25;;;38.08;;
74162;SDS011;62515;52.758;5.076;2023-10-09T00:05:49;51.60;;;33.15;;
74162;SDS011;62515;52.758;5.076;2023-10-09T00:08:16;52.47;;;34.45;;
74162;SDS011;62515;52.758;5.076;2023-10-09T00:10:43;51.95;;;32.83;;
74162;SDS011;62515;52.758;5.076;2023-10-09T00:13:11;44.72;;;24.77;;
74162;SDS011;62515;52.758;5.076;2023-10-09T00:15:38;43.10;;;22.05;;
74162;SDS011;62515;52.758;5.076;2023-10-09T00:18:05;40.75;;;22.88;;
74162;SDS011;62515;52.758;5.076;2023-10-09T00:20:35;46.33;;;28.40;;
74162;SDS011;62515;52.758;5.076;2023-10-09T00:23:02;49.05;;;24.02;;
74162;SDS011;62515;52.758;5.076;2023-10-09T00:25:29;55.03;;;29.83;;
74162;SDS011;62515;52.758;5.076;2023-10-09T00:27:56;47.50;;;23.77;;
74162;SDS011;62515;52.758;5.076;2023-10-09T00:30:24;50.00;;;33.70;;
74162;SDS011;62515;52.758;5.076;2023-10-09T00:32:51;53.35;;;32.88;;
74162;SDS011;62515;52.758;5.076;2023-10-09T00:35:18;53.33;;;26.50;;
74162;SDS011;62515;52.758;5.076;2023-10-09T00:37:45;48.58;;;32.45;;
74162;SDS011;62515;52.758;5.076;2023-10-09T00:40:11;46.25;;;28.48;;
74162;SDS011;62515;52.758;5.076;2023-10-09T00:42:38;51.60;;;26.08;;
74162;SDS011;62515;52.758;5.076;2023-10-09T00:45:05;54.58;;;32.85;;
74162;SDS011;62515;52.758;5.076;2023-10-09T00:47:34;54.15;;;31.48;;
74162;SDS011;62515;52.758;5.076;2023-10-09T00:50:02;54.28;;;32.20;;
74162;SDS011;62515;52.758;5.076;2023-10-09T00:52:32;40.63;;;25.75;;
74162;SDS011;62515;52.758;5.076;2023-10-09T00:55:00;48.13;;;31.58;;
74162;SDS011;62515;52.758;5.076;2023-10-09T00:57:28;51.25;;;29.65;;
74162;SDS011;62515;52.758;5.076;2023-10-09T00:59:56;59.30;;;31.45;;
74162;SDS011;62515;52.758;5.076;2023-10-09T01:02:26;56.92;;;32.17;;
74162;SDS011;62515;52.758;5.076;2023-10-09T01:04:55;49.92;;;24.48;;
74162;SDS011;62515;52.758;5.076;2023-10-09T01:07:22;54.00;;;28.15;;
74162;SDS011;62515;52.758;5.076;2023-10-09T01:09:49;63.22;;;36.85;;
74162;SDS011;62515;52.758;5.076;2023-10-09T01:12:16;57.03;;;35.10;;
74162;SDS011;62515;52.758;5.076;2023-10-09T01:14:42;49.38;;;26.10;;
74162;SDS011;62515;52.758;5.076;2023-10-09T01:17:09;54.45;;;31.60;;
74162;SDS011;62515;52.758;5.076;2023-10-09T01:19:37;49.08;;;33.58;;
74162;SDS011;62515;52.758;5.076;2023-10-09T01:22:05;52.40;;;35.28;;
74162;SDS011;62515;52.758;5.076;2023-10-09T01:24:33;50.13;;;37.08;;
74162;SDS011;62515;52.758;5.076;2023-10-09T01:27:00;41.28;;;25.35;;
74162;SDS011;62515;52.758;5.076;2023-10-09T01:29:27;45.05;;;29.60;;
74162;SDS011;62515;52.758;5.076;2023-10-09T01:31:55;44.97;;;28.15;;
74162;SDS011;62515;52.758;5.076;2023-10-09T01:34:23;41.20;;;25.98;;
74162;SDS011;62515;52.758;5.076;2023-10-09T01:36:51;34.92;;;20.60;;
74162;SDS011;62515;52.758;5.076;2023-10-09T01:39:18;40.75;;;26.80;;
74162;SDS011;62515;52.758;5.076;2023-10-09T01:41:46;36.22;;;27.73;;
74162;SDS011;62515;52.758;5.076;2023-10-09T01:44:13;44.47;;;27.55;;
74162;SDS011;62515;52.758;5.076;2023-10-09T01:46:40;32.22;;;25.30;;
74162;SDS011;62515;52.758;5.076;2023-10-09T01:49:07;26.50;;;21.85;;
74162;SDS011;62515;52.758;5.076;2023-10-09T01:51:33;32.10;;;26.13;;
74162;SDS011;62515;52.758;5.076;2023-10-09T01:54:00;30.55;;;27.33;;
74162;SDS011;62515;52.758;5.076;2023-10-09T01:56:27;29.23;;;24.92;;
74162;SDS011;62515;52.758;5.076;2023-10-09T01:58:55;31.95;;;26.13;;
74162;SDS011;62515;52.758;5.076;2023-10-09T02:01:22;31.17;;;27.40;;
74162;SDS011;62515;52.758;5.076;2023-10-09T02:03:48;30.02;;;26.52;;
74162;SDS011;62515;52.758;5.076;2023-10-09T02:06:15;33.80;;;23.30;;
74162;SDS011;62515;52.758;5.076;2023-10-09T02:08:43;23.33;;;15.13;;
74162;SDS011;62515;52.758;5.076;2023-10-09T02:11:10;25.83;;;21.15;;
74162;SDS011;62515;52.758;5.076;2023-10-09T02:13:37;26.48;;;20.83;;
74162;SDS011;62515;52.758;5.076;2023-10-09T02:16:05;21.45;;;18.75;;
74162;SDS011;62515;52.758;5.076;2023-10-09T02:18:32;25.83;;;20.60;;
74162;SDS011;62515;52.758;5.076;2023-10-09T02:21:04;23.85;;;21.23;;
74162;SDS011;62515;52.758;5.076;2023-10-09T02:23:32;28.88;;;26.02;;
74162;SDS011;62515;52.758;5.076;2023-10-09T02:26:00;32.30;;;29.15;;
74162;SDS011;62515;52.758;5.076;2023-10-09T02:28:26;25.85;;;23.67;;
74162;SDS011;62515;52.758;5.076;2023-10-09T02:30:53;27.83;;;25.10;;
74162;SDS011;62515;52.758;5.076;2023-10-09T02:33:21;20.88;;;18.25;;
74162;SDS011;62515;52.758;5.076;2023-10-09T02:35:48;15.82;;;11.60;;
74162;SDS011;62515;52.758;5.076;2023-10-09T02:38:15;22.17;;;14.18;;
74162;SDS011;62515;52.758;5.076;2023-10-09T02:40:41;17.63;;;15.60;;
74162;SDS011;62515;52.758;5.076;2023-10-09T02:43:08;17.40;;;13.30;;
74162;SDS011;62515;52.758;5.076;2023-10-09T02:45:35;15.02;;;8.70;;
74162;SDS011;62515;52.758;5.076;2023-10-09T02:48:02;16.70;;;13.98;;
74162;SDS011;62515;52.758;5.076;2023-10-09T02:50:30;17.17;;;13.30;;
74162;SDS011;62515;52.758;5.076;2023-10-09T02:53:00;17.33;;;14.75;;
74162;SDS011;62515;52.758;5.076;2023-10-09T02:55:27;17.27;;;14.32;;
74162;SDS011;62515;52.758;5.076;2023-10-09T02:57:55;19.58;;;15.90;;
74162;SDS011;62515;52.758;5.076;2023-10-09T03:00:22;18.30;;;16.52;;
74162;SDS011;62515;52.758;5.076;2023-10-09T03:02:49;18.20;;;16.52;;
74162;SDS011;62515;52.758;5.076;2023-10-09T03:05:16;15.05;;;10.10;;
74162;SDS011;62515;52.758;5.076;2023-10-09T03:07:44;19.65;;;17.50;;
74162;SDS011;62515;52.758;5.076;2023-10-09T03:10:10;22.50;;;17.88;;
74162;SDS011;62515;52.758;5.076;2023-10-09T03:12:37;18.42;;;15.23;;
74162;SDS011;62515;52.758;5.076;2023-10-09T03:15:05;21.25;;;17.95;;
74162;SDS011;62515;52.758;5.076;2023-10-09T03:17:32;19.17;;;17.48;;
74162;SDS011;62515;52.758;5.076;2023-10-09T03:20:01;13.43;;;11.93;;
74162;SDS011;62515;52.758;5.076;2023-10-09T03:22:29;22.85;;;20.80;;
74162;SDS011;62515;52.758;5.076;2023-10-09T03:24:57;19.15;;;17.55;;
74162;SDS011;62515;52.758;5.076;2023-10-09T03:27:25;20.70;;;18.80;;
74162;SDS011;62515;52.758;5.076;2023-10-09T03:29:52;21.85;;;19.70;;
74162;SDS011;62515;52.758;5.076;2023-10-09T03:32:19;23.05;;;20.90;;
74162;SDS011;62515;52.758;5.076;2023-10-09T03:34:46;22.83;;;20.63;;
74162;SDS011;62515;52.758;5.076;2023-10-09T03:37:13;27.80;;;25.33;;
74162;SDS011;62515;52.758;5.076;2023-10-09T03:39:39;26.55;;;23.90;;
74162;SDS011;62515;52.758;5.076;2023-10-09T03:42:08;27.30;;;24.98;;
74162;SDS011;62515;52.758;5.076;2023-10-09T03:44:34;31.38;;;28.80;;
74162;SDS011;62515;52.758;5.076;2023-10-09T03:47:01;25.67;;;23.10;;
74162;SDS011;62515;52.758;5.076;2023-10-09T03:49:28;25.63;;;23.48;;
74162;SDS011;62515;52.758;5.076;2023-10-09T03:51:55;16.52;;;14.88;;
74162;SDS011;62515;52.758;5.076;2023-10-09T03:54:22;20.00;;;18.35;;
74162;SDS011;62515;52.758;5.076;2023-10-09T03:56:48;18.77;;;17.02;;
74162;SDS011;62515;52.758;5.076;2023-10-09T03:59:17;20.70;;;18.88;;
74162;SDS011;62515;52.758;5.076;2023-10-09T04:01:44;19.58;;;17.88;;
74162;SDS011;62515;52.758;5.076;2023-10-09T04:04:11;13.63;;;12.32;;
74162;SDS011;62515;52.758;5.076;2023-10-09T04:06:38;16.02;;;12.57;;
74162;SDS011;62515;52.758;5.076;2023-10-09T04:09:05;18.30;;;13.57;;
74162;SDS011;62515;52.758;5.076;2023-10-09T04:11:33;15.07;;;13.07;;
74162;SDS011;62515;52.758;5.076;2023-10-09T04:14:00;13.15;;;11.25;;
74162;SDS011;62515;52.758;5.076;2023-10-09T04:16:28;14.15;;;11.93;;
74162;SDS011;62515;52.758;5.076;2023-10-09T04:18:54;12.98;;;11.73;;
74162;SDS011;62515;52.758;5.076;2023-10-09T04:21:21;14.95;;;9.45;;
74162;SDS011;62515;52.758;5.076;2023-10-09T04:23:48;23.27;;;13.68;;
74162;SDS011;62515;52.758;5.076;2023-10-09T04:26:15;17.42;;;11.50;;
74162;SDS011;62515;52.758;5.076;2023-10-09T04:28:41;15.25;;;12.65;;
74162;SDS011;62515;52.758;5.076;2023-10-09T04:31:08;14.77;;;12.77;;
74162;SDS011;62515;52.758;5.076;2023-10-09T04:33:36;17.85;;;11.93;;
74162;SDS011;62515;52.758;5.076;2023-10-09T04:36:03;14.07;;;11.27;;
74162;SDS011;62515;52.758;5.076;2023-10-09T04:38:31;13.70;;;8.10;;
74162;SDS011;62515;52.758;5.076;2023-10-09T04:40:58;17.02;;;13.75;;
74162;SDS011;62515;52.758;5.076;2023-10-09T04:43:24;18.38;;;13.90;;
74162;SDS011;62515;52.758;5.076;2023-10-09T04:45:51;21.10;;;19.25;;
74162;SDS011;62515;52.758;5.076;2023-10-09T04:48:18;30.55;;;28.33;;
74162;SDS011;62515;52.758;5.076;2023-10-09T04:50:50;19.35;;;16.05;;
74162;SDS011;62515;52.758;5.076;2023-10-09T04:53:17;33.83;;;31.13;;
74162;SDS011;62515;52.758;5.076;2023-10-09T04:55:44;23.20;;;20.40;;
74162;SDS011;62515;52.758;5.076;2023-10-09T04:58:10;52.58;;;48.83;;
74162;SDS011;62515;52.758;5.076;2023-10-09T05:00:37;20.38;;;18.58;;
74162;SDS011;62515;52.758;5.076;2023-10-09T05:03:04;39.70;;;36.58;;
74162;SDS011;62515;52.758;5.076;2023-10-09T05:05:31;35.90;;;33.08;;
74162;SDS011;62515;52.758;5.076;2023-10-09T05:08:00;25.88;;;21.45;;
74162;SDS011;62515;52.758;5.076;2023-10-09T05:10:27;18.13;;;16.25;;
74162;SDS011;62515;52.758;5.076;2023-10-09T05:12:53;19.00;;;17.02;;
74162;SDS011;62515;52.758;5.076;2023-10-09T05:15:20;18.60;;;16.15;;
74162;SDS011;62515;52.758;5.076;2023-10-09T05:17:47;33.95;;;31.15;;
74162;SDS011;62515;52.758;5.076;2023-10-09T05:20:14;17.75;;;16.08;;
74162;SDS011;62515;52.758;5.076;2023-10-09T05:22:41;22.13;;;19.77;;
74162;SDS011;62515;52.758;5.076;2023-10-09T05:25:09;22.90;;;17.80;;
74162;SDS011;62515;52.758;5.076;2023-10-09T05:27:35;16.23;;;14.52;;
74162;SDS011;62515;52.758;5.076;2023-10-09T05:30:02;28.60;;;18.90;;
74162;SDS011;62515;52.758;5.076;2023-10-09T05:32:30;18.20;;;15.98;;
74162;SDS011;62515;52.758;5.076;2023-10-09T05:34:57;15.45;;;12.85;;
74162;SDS011;62515;52.758;5.076;2023-10-09T05:37:24;25.25;;;23.10;;
74162;SDS011;62515;52.758;5.076;2023-10-09T05:39:51;16.92;;;14.57;;
74162;SDS011;62515;52.758;5.076;2023-10-09T05:42:19;31.98;;;29.20;;
74162;SDS011;62515;52.758;5.076;2023-10-09T05:44:46;26.48;;;21.38;;
74162;SDS011;62515;52.758;5.076;2023-10-09T05:47:13;18.10;;;15.80;;
74162;SDS011;62515;52.758;5.076;2023-10-09T05:49:40;20.92;;;18.60;;
74162;SDS011;62515;52.758;5.076;2023-10-09T05:52:07;22.58;;;19.73;;
74162;SDS011;62515;52.758;5.076;2023-10-09T05:54:33;13.10;;;11.85;;
74162;SDS011;62515;52.758;5.076;2023-10-09T05:57:00;24.55;;;19.63;;
74162;SDS011;62515;52.758;5.076;2023-10-09T05:59:28;25.10;;;17.92;;
74162;SDS011;62515;52.758;5.076;2023-10-09T06:01:55;25.33;;;18.90;;
74162;SDS011;62515;52.758;5.076;2023-10-09T06:04:22;23.17;;;20.77;;
74162;SDS011;62515;52.758;5.076;2023-10-09T06:06:49;24.05;;;18.83;;
74162;SDS011;62515;52.758;5.076;2023-10-09T06:09:16;106.38;;;98.35;;
74162;SDS011;62515;52.758;5.076;2023-10-09T06:11:43;38.20;;;34.95;;
74162;SDS011;62515;52.758;5.076;2023-10-09T06:14:11;43.53;;;39.47;;
74162;SDS011;62515;52.758;5.076;2023-10-09T06:16:40;77.68;;;72.25;;
74162;SDS011;62515;52.758;5.076;2023-10-09T06:19:08;111.60;;;103.68;;
74162;SDS011;62515;52.758;5.076;2023-10-09T06:21:35;104.47;;;96.50;;
74162;SDS011;62515;52.758;5.076;2023-10-09T06:24:03;38.75;;;34.72;;
74162;SDS011;62515;52.758;5.076;2023-10-09T06:26:30;76.63;;;70.30;;
74162;SDS011;62515;52.758;5.076;2023-10-09T06:28:57;26.20;;;23.48;;
74162;SDS011;62515;52.758;5.076;2023-10-09T06:31:23;33.05;;;29.92;;
74162;SDS011;62515;52.758;5.076;2023-10-09T06:33:51;28.02;;;25.20;;
74162;SDS011;62515;52.758;5.076;2023-10-09T06:36:18;50.83;;;46.63;;
74162;SDS011;62515;52.758;5.076;2023-10-09T06:38:45;115.60;;;106.47;;
74162;SDS011;62515;52.758;5.076;2023-10-09T06:41:12;22.83;;;20.58;;
74162;SDS011;62515;52.758;5.076;2023-10-09T06:43:38;14.10;;;10.40;;
74162;SDS011;62515;52.758;5.076;2023-10-09T06:46:05;16.30;;;14.65;;
74162;SDS011;62515;52.758;5.076;2023-10-09T06:48:32;19.70;;;15.80;;
74162;SDS011;62515;52.758;5.076;2023-10-09T06:51:03;20.38;;;15.13;;
74162;SDS011;62515;52.758;5.076;2023-10-09T06:53:30;21.83;;;16.48;;
74162;SDS011;62515;52.758;5.076;2023-10-09T06:55:57;18.13;;;15.85;;
74162;SDS011;62515;52.758;5.076;2023-10-09T06:58:24;17.38;;;15.55;;
74162;SDS011;62515;52.758;5.076;2023-10-09T07:00:50;20.48;;;15.40;;
74162;SDS011;62515;52.758;5.076;2023-10-09T07:03:18;18.13;;;14.60;;
74162;SDS011;62515;52.758;5.076;2023-10-09T07:05:44;15.40;;;13.65;;
74162;SDS011;62515;52.758;5.076;2023-10-09T07:08:13;14.75;;;13.30;;
74162;SDS011;62515;52.758;5.076;2023-10-09T07:10:39;14.25;;;12.27;;
74162;SDS011;62515;52.758;5.076;2023-10-09T07:13:06;19.60;;;14.38;;
74162;SDS011;62515;52.758;5.076;2023-10-09T07:15:34;14.05;;;12.27;;
74162;SDS011;62515;52.758;5.076;2023-10-09T07:18:01;14.32;;;11.75;;
74162;SDS011;62515;52.758;5.076;2023-10-09T07:20:27;18.75;;;12.63;;
74162;SDS011;62515;52.758;5.076;2023-10-09T07:22:54;17.80;;;13.50;;
74162;SDS011;62515;52.758;5.076;2023-10-09T07:25:22;17.90;;;13.23;;
74162;SDS011;62515;52.758;5.076;2023-10-09T07:27:49;20.17;;;12.43;;
74162;SDS011;62515;52.758;5.076;2023-10-09T07:30:17;14.90;;;12.57;;
74162;SDS011;62515;52.758;5.076;2023-10-09T07:32:45;19.77;;;15.73;;
74162;SDS011;62515;52.758;5.076;2023-10-09T07:35:12;19.50;;;14.93;;
74162;SDS011;62515;52.758;5.076;2023-10-09T07:37:38;15.82;;;14.13;;
74162;SDS011;62515;52.758;5.076;2023-10-09T07:40:06;17.48;;;14.38;;
74162;SDS011;62515;52.758;5.076;2023-10-09T07:42:35;20.55;;;16.38;;
74162;SDS011;62515;52.758;5.076;2023-10-09T07:45:02;19.98;;;16.48;;
74162;SDS011;62515;52.758;5.076;2023-10-09T07:47:29;17.25;;;15.48;;
74162;SDS011;62515;52.758;5.076;2023-10-09T07:49:56;17.38;;;15.65;;
74162;SDS011;62515;52.758;5.076;2023-10-09T07:52:22;23.90;;;18.70;;
74162;SDS011;62515;52.758;5.076;2023-10-09T07:54:49;21.95;;;18.58;;
74162;SDS011;62515;52.758;5.076;2023-10-09T07:57:16;20.40;;;12.43;;
74162;SDS011;62515;52.758;5.076;2023-10-09T07:59:44;17.92;;;15.82;;
74162;SDS011;62515;52.758;5.076;2023-10-09T08:02:11;22.33;;;17.92;;
74162;SDS011;62515;52.758;5.076;2023-10-09T08:04:38;21.13;;;16.85;;
74162;SDS011;62515;52.758;5.076;2023-10-09T08:07:06;19.38;;;17.48;;
74162;SDS011;62515;52.758;5.076;2023-10-09T08:09:53;18.17;;;14.18;;
74162;SDS011;62515;52.758;5.076;2023-10-09T08:12:20;16.27;;;14.63;;
74162;SDS011;62515;52.758;5.076;2023-10-09T08:14:48;17.45;;;15.57;;
74162;SDS011;62515;52.758;5.076;2023-10-09T08:17:15;19.13;;;16.42;;
74162;SDS011;62515;52.758;5.076;2023-10-09T08:19:42;22.20;;;15.18;;
74162;SDS011;62515;52.758;5.076;2023-10-09T08:22:12;21.58;;;14.23;;
74162;SDS011;62515;52.758;5.076;2023-10-09T08:24:39;15.05;;;13.57;;
74162;SDS011;62515;52.758;5.076;2023-10-09T08:27:05;18.05;;;10.68;;
74162;SDS011;62515;52.758;5.076;2023-10-09T08:29:32;16.00;;;14.00;;
74162;SDS011;62515;52.758;5.076;2023-10-09T08:32:00;15.90;;;11.60;;
74162;SDS011;62515;52.758;5.076;2023-10-09T08:34:27;24.73;;;12.52;;
74162;SDS011;62515;52.758;5.076;2023-10-09T08:36:56;16.17;;;12.63;;
74162;SDS011;62515;52.758;5.076;2023-10-09T08:39:24;15.85;;;13.35;;
74162;SDS011;62515;52.758;5.076;2023-10-09T08:41:50;20.98;;;14.18;;
74162;SDS011;62515;52.758;5.076;2023-10-09T08:44:17;16.67;;;13.27;;
74162;SDS011;62515;52.758;5.076;2023-10-09T08:46:46;14.85;;;12.95;;
74162;SDS011;62515;52.758;5.076;2023-10-09T08:49:14;14.85;;;11.23;;
74162;SDS011;62515;52.758;5.076;2023-10-09T08:51:41;17.67;;;11.50;;
74162;SDS011;62515;52.758;5.076;2023-10-09T08:54:08;15.00;;;11.63;;
74162;SDS011;62515;52.758;5.076;2023-10-09T08:56:35;19.42;;;16.85;;
74162;SDS011;62515;52.758;5.076;2023-10-09T08:59:01;17.55;;;15.02;;
74162;SDS011;62515;52.758;5.076;2023-10-09T09:01:28;15.02;;;13.18;;
74162;SDS011;62515;52.758;5.076;2023-10-09T09:03:55;16.20;;;10.90;;
74162;SDS011;62515;52.758;5.076;2023-10-09T09:06:23;12.57;;;10.15;;
74162;SDS011;62515;52.758;5.076;2023-10-09T09:08:50;18.75;;;10.50;;
74162;SDS011;62515;52.758;5.076;2023-10-09T09:11:19;13.77;;;11.50;;
74162;SDS011;62515;52.758;5.076;2023-10-09T09:13:47;15.10;;;12.35;;
74162;SDS011;62515;52.758;5.076;2023-10-09T09:16:26;15.07;;;10.75;;
74162;SDS011;62515;52.758;5.076;2023-10-09T09:18:53;12.05;;;10.85;;
74162;SDS011;62515;52.758;5.076;2023-10-09T09:21:21;15.63;;;13.10;;
74162;SDS011;62515;52.758;5.076;2023-10-09T09:23:59;14.77;;;11.57;;
74162;SDS011;62515;52.758;5.076;2023-10-09T09:26:36;15.27;;;12.25;;
74162;SDS011;62515;52.758;5.076;2023-10-09T09:29:04;12.98;;;11.63;;
74162;SDS011;62515;52.758;5.076;2023-10-09T09:31:32;14.57;;;11.40;;
74162;SDS011;62515;52.758;5.076;2023-10-09T09:33:59;11.20;;;9.90;;
74162;SDS011;62515;52.758;5.076;2023-10-09T09:36:26;12.77;;;11.05;;
74162;SDS011;62515;52.758;5.076;2023-10-09T09:38:52;15.00;;;11.77;;
74162;SDS011;62515;52.758;5.076;2023-10-09T09:41:21;14.75;;;10.70;;
74162;SDS011;62515;52.758;5.076;2023-10-09T09:43:51;14.40;;;12.65;;
74162;SDS011;62515;52.758;5.076;2023-10-09T09:46:19;12.73;;;10.82;;
74162;SDS011;62515;52.758;5.076;2023-10-09T09:48:50;13.77;;;10.95;;
74162;SDS011;62515;52.758;5.076;2023-10-09T09:51:17;13.32;;;11.90;;
74162;SDS011;62515;52.758;5.076;2023-10-09T09:53:44;17.23;;;14.02;;
74162;SDS011;62515;52.758;5.076;2023-10-09T09:56:12;12.80;;;10.98;;
74162;SDS011;62515;52.758;5.076;2023-10-09T09:58:43;15.45;;;13.18;;
74162;SDS011;62515;52.758;5.076;2023-10-09T10:01:12;16.35;;;10.88;;
74162;SDS011;62515;52.758;5.076;2023-10-09T10:03:42;16.15;;;12.68;;
74162;SDS011;62515;52.758;5.076;2023-10-09T10:06:13;15.18;;;11.48;;
74162;SDS011;62515;52.758;5.076;2023-10-09T10:08:41;16.00;;;11.98;;
74162;SDS011;62515;52.758;5.076;2023-10-09T10:11:08;16.35;;;12.18;;
74162;SDS011;62515;52.758;5.076;2023-10-09T10:14:12;15.63;;;10.15;;
74162;SDS011;62515;52.758;5.076;2023-10-09T10:22:29;16.38;;;12.98;;
74162;SDS011;62515;52.758;5.076;2023-10-09T10:24:57;16.98;;;14.30;;
74162;SDS011;62515;52.758;5.076;2023-10-09T10:27:25;17.45;;;12.73;;
74162;SDS011;62515;52.758;5.076;2023-10-09T10:32:55;17.73;;;12.82;;
74162;SDS011;62515;52.758;5.076;2023-10-09T10:35:23;12.85;;;11.45;;
74162;SDS011;62515;52.758;5.076;2023-10-09T10:37:50;14.52;;;10.27;;
74162;SDS011;62515;52.758;5.076;2023-10-09T10:40:22;13.15;;;9.13;;
74162;SDS011;62515;52.758;5.076;2023-10-09T10:42:49;14.77;;;13.30;;
74162;SDS011;62515;52.758;5.076;2023-10-09T10:45:17;15.88;;;12.63;;
74162;SDS011;62515;52.758;5.076;2023-10-09T10:47:46;15.80;;;12.73;;
74162;SDS011;62515;52.758;5.076;2023-10-09T10:52:40;15.85;;;14.43;;
74162;SDS011;62515;52.758;5.076;2023-10-09T10:55:08;16.85;;;13.77;;
74162;SDS011;62515;52.758;5.076;2023-10-09T10:57:36;16.52;;;14.20;;
74162;SDS011;62515;52.758;5.076;2023-10-09T11:00:09;17.13;;;13.38;;
74162;SDS011;62515;52.758;5.076;2023-10-09T11:02:37;14.63;;;12.60;;
74162;SDS011;62515;52.758;5.076;2023-10-09T11:05:06;15.60;;;12.68;;
74162;SDS011;62515;52.758;5.076;2023-10-09T11:07:34;15.77;;;10.65;;
74162;SDS011;62515;52.758;5.076;2023-10-09T11:10:01;17.95;;;12.75;;
74162;SDS011;62515;52.758;5.076;2023-10-09T11:12:27;17.40;;;12.85;;
74162;SDS011;62515;52.758;5.076;2023-10-09T11:14:54;14.90;;;13.25;;
74162;SDS011;62515;52.758;5.076;2023-10-09T11:17:21;19.70;;;12.98;;
74162;SDS011;62515;52.758;5.076;2023-10-09T11:19:48;17.65;;;13.43;;
74162;SDS011;62515;52.758;5.076;2023-10-09T11:22:16;15.10;;;12.93;;
74162;SDS011;62515;52.758;5.076;2023-10-09T11:24:43;17.30;;;14.00;;
74162;SDS011;62515;52.758;5.076;2023-10-09T11:27:10;16.35;;;14.18;;
74162;SDS011;62515;52.758;5.076;2023-10-09T11:29:38;15.93;;;14.43;;
74162;SDS011;62515;52.758;5.076;2023-10-09T11:32:15;18.33;;;14.73;;
74162;SDS011;62515;52.758;5.076;2023-10-09T11:34:43;15.20;;;13.73;;
74162;SDS011;62515;52.758;5.076;2023-10-09T11:37:12;17.20;;;13.43;;
74162;SDS011;62515;52.758;5.076;2023-10-09T11:39:41;16.38;;;13.18;;
74162;SDS011;62515;52.758;5.076;2023-10-09T11:42:09;19.75;;;14.50;;
74162;SDS011;62515;52.758;5.076;2023-10-09T11:44:41;19.17;;;12.93;;
74162;SDS011;62515;52.758;5.076;2023-10-09T11:47:08;14.07;;;11.70;;
74162;SDS011;62515;52.758;5.076;2023-10-09T11:49:35;17.90;;;12.77;;
74162;SDS011;62515;52.758;5.076;2023-10-09T11:52:05;17.00;;;12.95;;
74162;SDS011;62515;52.758;5.076;2023-10-09T11:54:32;11.73;;;8.90;;
74162;SDS011;62515;52.758;5.076;2023-10-09T11:57:01;20.55;;;12.50;;
74162;SDS011;62515;52.758;5.076;2023-10-09T11:59:28;17.92;;;12.88;;
74162;SDS011;62515;52.758;5.076;2023-10-09T12:01:55;21.38;;;12.32;;
74162;SDS011;62515;52.758;5.076;2023-10-09T12:04:22;20.33;;;13.55;;
74162;SDS011;62515;52.758;5.076;2023-10-09T12:06:49;23.48;;;21.33;;
74162;SDS011;62515;52.758;5.076;2023-10-09T12:09:16;17.38;;;14.30;;
74162;SDS011;62515;52.758;5.076;2023-10-09T12:11:42;16.45;;;12.27;;
74162;SDS011;62515;52.758;5.076;2023-10-09T12:14:30;15.55;;;11.20;;
74162;SDS011;62515;52.758;5.076;2023-10-09T12:16:57;16.80;;;12.88;;
74162;SDS011;62515;52.758;5.076;2023-10-09T12:19:23;9.52;;;8.15;;
74162;SDS011;62515;52.758;5.076;2023-10-09T12:21:52;16.73;;;12.40;;
74162;SDS011;62515;52.758;5.076;2023-10-09T12:24:18;15.80;;;11.75;;
74162;SDS011;62515;52.758;5.076;2023-10-09T12:26:45;15.88;;;12.57;;
74162;SDS011;62515;52.758;5.076;2023-10-09T12:29:12;18.40;;;12.68;;
74162;SDS011;62515;52.758;5.076;2023-10-09T12:31:40;18.13;;;14.73;;
74162;SDS011;62515;52.758;5.076;2023-10-09T12:34:07;18.23;;;13.05;;
74162;SDS011;62515;52.758;5.076;2023-10-09T12:36:34;21.10;;;13.02;;
74162;SDS011;62515;52.758;5.076;2023-10-09T12:39:00;16.05;;;11.80;;
74162;SDS011;62515;52.758;5.076;2023-10-09T12:41:27;14.13;;;11.13;;
74162;SDS011;62515;52.758;5.076;2023-10-09T12:43:55;15.23;;;12.82;;
74162;SDS011;62515;52.758;5.076;2023-10-09T12:46:22;17.15;;;13.43;;
74162;SDS011;62515;52.758;5.076;2023-10-09T12:48:50;16.33;;;13.38;;
74162;SDS011;62515;52.758;5.076;2023-10-09T12:51:17;14.52;;;13.07;;
74162;SDS011;62515;52.758;5.076;2023-10-09T12:53:44;15.13;;;12.73;;
74162;SDS011;62515;52.758;5.076;2023-10-09T12:56:11;17.70;;;15.80;;
74162;SDS011;62515;52.758;5.076;2023-10-09T12:58:38;14.23;;;12.48;;
74162;SDS011;62515;52.758;5.076;2023-10-09T13:01:08;15.07;;;13.27;;
74162;SDS011;62515;52.758;5.076;2023-10-09T13:03:36;20.27;;;12.90;;
74162;SDS011;62515;52.758;5.076;2023-10-09T13:06:04;16.85;;;15.05;;
74162;SDS011;62515;52.758;5.076;2023-10-09T13:08:31;14.68;;;11.65;;
74162;SDS011;62515;52.758;5.076;2023-10-09T13:11:01;16.20;;;10.73;;
74162;SDS011;62515;52.758;5.076;2023-10-09T13:13:29;15.35;;;13.75;;
74162;SDS011;62515;52.758;5.076;2023-10-09T13:15:56;14.60;;;13.20;;
74162;SDS011;62515;52.758;5.076;2023-10-09T13:18:22;15.20;;;13.48;;
74162;SDS011;62515;52.758;5.076;2023-10-09T13:20:49;17.88;;;13.27;;
74162;SDS011;62515;52.758;5.076;2023-10-09T13:23:17;10.55;;;8.80;;
74162;SDS011;62515;52.758;5.076;2023-10-09T13:25:44;14.27;;;12.75;;
74162;SDS011;62515;52.758;5.076;2023-10-09T13:28:11;10.73;;;9.68;;
74162;SDS011;62515;52.758;5.076;2023-10-09T13:30:37;15.95;;;14.38;;
74162;SDS011;62515;52.758;5.076;2023-10-09T13:33:05;17.38;;;15.45;;
74162;SDS011;62515;52.758;5.076;2023-10-09T13:35:31;11.50;;;9.13;;
74162;SDS011;62515;52.758;5.076;2023-10-09T13:37:58;17.83;;;16.20;;
74162;SDS011;62515;52.758;5.076;2023-10-09T13:40:26;17.30;;;15.52;;
74162;SDS011;62515;52.758;5.076;2023-10-09T13:42:54;19.90;;;16.67;;
74162;SDS011;62515;52.758;5.076;2023-10-09T13:45:21;16.20;;;14.52;;
74162;SDS011;62515;52.758;5.076;2023-10-09T13:47:47;18.20;;;15.45;;
74162;SDS011;62515;52.758;5.076;2023-10-09T13:50:14;14.00;;;12.57;;
74162;SDS011;62515;52.758;5.076;2023-10-09T13:52:41;15.95;;;12.77;;
74162;SDS011;62515;52.758;5.076;2023-10-09T13:55:08;15.43;;;13.88;;
74162;SDS011;62515;52.758;5.076;2023-10-09T13:57:37;16.92;;;15.32;;
74162;SDS011;62515;52.758;5.076;2023-10-09T14:00:04;16.85;;;14.93;;
74162;SDS011;62515;52.758;5.076;2023-10-09T14:02:32;19.90;;;17.85;;
74162;SDS011;62515;52.758;5.076;2023-10-09T14:04:58;17.50;;;14.07;;
74162;SDS011;62515;52.758;5.076;2023-10-09T14:07:25;15.40;;;13.32;;
74162;SDS011;62515;52.758;5.076;2023-10-09T14:09:52;17.70;;;15.93;;
74162;SDS011;62515;52.758;5.076;2023-10-09T14:12:19;21.52;;;17.45;;
74162;SDS011;62515;52.758;5.076;2023-10-09T14:14:47;17.50;;;15.63;;
74162;SDS011;62515;52.758;5.076;2023-10-09T14:17:14;21.42;;;19.27;;
74162;SDS011;62515;52.758;5.076;2023-10-09T14:19:42;17.30;;;15.38;;
74162;SDS011;62515;52.758;5.076;2023-10-09T14:22:09;22.95;;;20.63;;
74162;SDS011;62515;52.758;5.076;2023-10-09T14:24:36;20.92;;;17.60;;
74162;SDS011;62515;52.758;5.076;2023-10-09T14:27:03;14.43;;;12.55;;
74162;SDS011;62515;52.758;5.076;2023-10-09T14:29:30;16.02;;;14.32;;
74162;SDS011;62515;52.758;5.076;2023-10-09T14:32:00;22.08;;;20.13;;
74162;SDS011;62515;52.758;5.076;2023-10-09T14:34:27;18.10;;;16.48;;